Santiago, Panama
Current Conditions -  °F | °C
As of 10:00 AM on Saturday 20 Dec 2014 (Local Time) from MPMG Reporting Station
Few Clouds Few Clouds  
Wind Chill: 84°   Ceiling: Unl
Heat Index: 91°   Visibility: 6mi
Dew Point: 73°   Wind: 6mph
Humidity: 70%   Direction: 350°N
Pressure: 29.88"   Gusts: NA
Location:  8.1°N, 80.97°W
Report Text: MPMG 201500Z 35005KT 9000 FEW020 29/23 Q1012 NOSIG
Loading
Personal Weather Stations






























Interactive Weather Map New forecast layout! Learn more

10-Day Weather Forecast

Advertisements
Track Severe Weather on mobile